sensor_id;sensor_type;location;lat;lon;timestamp;P1;durP1;ratioP1;P2;durP2;ratioP2
72379;SDS011;60354;47.798;12.472;2022-08-02T00:01:50;3.22;;;1.58;;
72379;SDS011;60354;47.798;12.472;2022-08-02T00:04:15;2.60;;;1.40;;
72379;SDS011;60354;47.798;12.472;2022-08-02T00:06:41;3.20;;;1.65;;
72379;SDS011;60354;47.798;12.472;2022-08-02T00:09:07;4.70;;;1.90;;
72379;SDS011;60354;47.798;12.472;2022-08-02T00:11:32;2.90;;;1.60;;
72379;SDS011;60354;47.798;12.472;2022-08-02T00:13:58;1.92;;;1.50;;
72379;SDS011;60354;47.798;12.472;2022-08-02T00:16:24;3.30;;;1.50;;
72379;SDS011;60354;47.798;12.472;2022-08-02T00:18:49;3.45;;;1.50;;
72379;SDS011;60354;47.798;12.472;2022-08-02T00:21:15;2.20;;;1.48;;
72379;SDS011;60354;47.798;12.472;2022-08-02T00:23:40;3.30;;;1.42;;
72379;SDS011;60354;47.798;12.472;2022-08-02T00:26:06;3.35;;;1.60;;
72379;SDS011;60354;47.798;12.472;2022-08-02T00:28:31;2.08;;;1.58;;
72379;SDS011;60354;47.798;12.472;2022-08-02T00:30:57;2.20;;;1.50;;
72379;SDS011;60354;47.798;12.472;2022-08-02T00:33:23;4.00;;;1.70;;
72379;SDS011;60354;47.798;12.472;2022-08-02T00:35:49;2.28;;;1.83;;
72379;SDS011;60354;47.798;12.472;2022-08-02T00:38:15;2.63;;;1.40;;
72379;SDS011;60354;47.798;12.472;2022-08-02T00:40:45;3.72;;;1.55;;
72379;SDS011;60354;47.798;12.472;2022-08-02T00:43:12;2.42;;;1.50;;
72379;SDS011;60354;47.798;12.472;2022-08-02T00:45:38;2.75;;;1.60;;
72379;SDS011;60354;47.798;12.472;2022-08-02T00:48:05;2.78;;;1.50;;
72379;SDS011;60354;47.798;12.472;2022-08-02T00:50:32;2.00;;;1.27;;
72379;SDS011;60354;47.798;12.472;2022-08-02T00:52:58;2.33;;;1.35;;
72379;SDS011;60354;47.798;12.472;2022-08-02T00:55:24;5.25;;;1.58;;
72379;SDS011;60354;47.798;12.472;2022-08-02T00:57:50;3.80;;;1.58;;
72379;SDS011;60354;47.798;12.472;2022-08-02T01:00:16;2.78;;;1.42;;
72379;SDS011;60354;47.798;12.472;2022-08-02T01:02:42;3.00;;;1.50;;
72379;SDS011;60354;47.798;12.472;2022-08-02T01:05:08;3.22;;;1.50;;
72379;SDS011;60354;47.798;12.472;2022-08-02T01:07:34;1.92;;;1.40;;
72379;SDS011;60354;47.798;12.472;2022-08-02T01:09:59;3.53;;;1.50;;
72379;SDS011;60354;47.798;12.472;2022-08-02T01:12:25;4.80;;;1.50;;
72379;SDS011;60354;47.798;12.472;2022-08-02T01:14:52;2.88;;;1.42;;
72379;SDS011;60354;47.798;12.472;2022-08-02T01:17:34;2.05;;;1.40;;
72379;SDS011;60354;47.798;12.472;2022-08-02T01:28:54;2.30;;;1.60;;
72379;SDS011;60354;47.798;12.472;2022-08-02T01:33:58;3.35;;;1.50;;
72379;SDS011;60354;47.798;12.472;2022-08-02T01:36:30;3.60;;;1.48;;
72379;SDS011;60354;47.798;12.472;2022-08-02T01:38:59;2.75;;;1.58;;
72379;SDS011;60354;47.798;12.472;2022-08-02T01:41:28;3.45;;;1.50;;
72379;SDS011;60354;47.798;12.472;2022-08-02T01:43:57;4.43;;;1.50;;
72379;SDS011;60354;47.798;12.472;2022-08-02T01:46:24;2.35;;;1.45;;
72379;SDS011;60354;47.798;12.472;2022-08-02T01:48:53;2.67;;;1.55;;
72379;SDS011;60354;47.798;12.472;2022-08-02T01:51:21;2.33;;;1.60;;
72379;SDS011;60354;47.798;12.472;2022-08-02T01:54:10;3.08;;;1.58;;
72379;SDS011;60354;47.798;12.472;2022-08-02T01:56:38;2.38;;;1.50;;
72379;SDS011;60354;47.798;12.472;2022-08-02T01:59:05;2.92;;;1.50;;
72379;SDS011;60354;47.798;12.472;2022-08-02T02:01:33;3.50;;;1.60;;
72379;SDS011;60354;47.798;12.472;2022-08-02T02:04:01;3.30;;;1.70;;
72379;SDS011;60354;47.798;12.472;2022-08-02T02:06:27;3.22;;;1.60;;
72379;SDS011;60354;47.798;12.472;2022-08-02T02:08:53;3.03;;;1.48;;
72379;SDS011;60354;47.798;12.472;2022-08-02T02:11:20;2.38;;;1.50;;
72379;SDS011;60354;47.798;12.472;2022-08-02T02:13:46;2.40;;;1.50;;
72379;SDS011;60354;47.798;12.472;2022-08-02T02:16:12;4.20;;;1.50;;
72379;SDS011;60354;47.798;12.472;2022-08-02T02:18:40;2.40;;;1.60;;
72379;SDS011;60354;47.798;12.472;2022-08-02T02:21:08;2.90;;;1.50;;
72379;SDS011;60354;47.798;12.472;2022-08-02T02:23:36;3.53;;;1.70;;
72379;SDS011;60354;47.798;12.472;2022-08-02T02:26:02;2.45;;;1.60;;
72379;SDS011;60354;47.798;12.472;2022-08-02T02:28:29;2.33;;;1.50;;
72379;SDS011;60354;47.798;12.472;2022-08-02T02:31:15;2.55;;;1.50;;
72379;SDS011;60354;47.798;12.472;2022-08-02T02:33:48;3.55;;;1.60;;
72379;SDS011;60354;47.798;12.472;2022-08-02T02:36:17;3.75;;;1.60;;
72379;SDS011;60354;47.798;12.472;2022-08-02T02:38:43;1.77;;;1.30;;
72379;SDS011;60354;47.798;12.472;2022-08-02T02:41:10;3.33;;;1.50;;
72379;SDS011;60354;47.798;12.472;2022-08-02T02:43:37;4.18;;;1.80;;
72379;SDS011;60354;47.798;12.472;2022-08-02T02:46:05;2.20;;;1.60;;
72379;SDS011;60354;47.798;12.472;2022-08-02T02:48:32;3.17;;;1.70;;
72379;SDS011;60354;47.798;12.472;2022-08-02T02:50:59;3.22;;;1.25;;
72379;SDS011;60354;47.798;12.472;2022-08-02T02:53:27;4.40;;;1.60;;
72379;SDS011;60354;47.798;12.472;2022-08-02T02:55:54;2.20;;;1.45;;
72379;SDS011;60354;47.798;12.472;2022-08-02T02:58:20;2.42;;;1.50;;
72379;SDS011;60354;47.798;12.472;2022-08-02T03:00:46;4.45;;;1.80;;
72379;SDS011;60354;47.798;12.472;2022-08-02T03:03:31;2.78;;;1.60;;
72379;SDS011;60354;47.798;12.472;2022-08-02T03:05:58;2.97;;;1.67;;
72379;SDS011;60354;47.798;12.472;2022-08-02T03:08:23;2.50;;;1.60;;
72379;SDS011;60354;47.798;12.472;2022-08-02T03:10:49;3.65;;;1.70;;
72379;SDS011;60354;47.798;12.472;2022-08-02T03:13:15;2.00;;;1.60;;
72379;SDS011;60354;47.798;12.472;2022-08-02T03:15:42;2.42;;;1.60;;
72379;SDS011;60354;47.798;12.472;2022-08-02T03:18:28;3.35;;;1.60;;
72379;SDS011;60354;47.798;12.472;2022-08-02T03:20:57;3.28;;;1.70;;
72379;SDS011;60354;47.798;12.472;2022-08-02T03:23:24;3.00;;;1.70;;
72379;SDS011;60354;47.798;12.472;2022-08-02T03:25:49;4.03;;;1.65;;
72379;SDS011;60354;47.798;12.472;2022-08-02T03:28:15;3.20;;;1.70;;
72379;SDS011;60354;47.798;12.472;2022-08-02T03:30:40;3.92;;;1.70;;
72379;SDS011;60354;47.798;12.472;2022-08-02T03:33:06;4.20;;;1.70;;
72379;SDS011;60354;47.798;12.472;2022-08-02T03:35:31;2.97;;;1.50;;
72379;SDS011;60354;47.798;12.472;2022-08-02T03:37:57;5.35;;;1.67;;
72379;SDS011;60354;47.798;12.472;2022-08-02T03:40:24;3.65;;;2.00;;
72379;SDS011;60354;47.798;12.472;2022-08-02T03:42:52;3.80;;;1.80;;
72379;SDS011;60354;47.798;12.472;2022-08-02T03:45:18;4.60;;;2.00;;
72379;SDS011;60354;47.798;12.472;2022-08-02T03:47:44;2.65;;;1.63;;
72379;SDS011;60354;47.798;12.472;2022-08-02T03:50:11;2.92;;;1.65;;
72379;SDS011;60354;47.798;12.472;2022-08-02T03:52:40;2.80;;;1.60;;
72379;SDS011;60354;47.798;12.472;2022-08-02T03:55:09;3.20;;;1.60;;
72379;SDS011;60354;47.798;12.472;2022-08-02T03:57:39;2.78;;;1.50;;
72379;SDS011;60354;47.798;12.472;2022-08-02T04:00:06;2.30;;;1.60;;
72379;SDS011;60354;47.798;12.472;2022-08-02T04:02:37;3.20;;;1.70;;
72379;SDS011;60354;47.798;12.472;2022-08-02T04:05:03;2.20;;;1.70;;
72379;SDS011;60354;47.798;12.472;2022-08-02T04:07:29;3.53;;;1.77;;
72379;SDS011;60354;47.798;12.472;2022-08-02T04:09:55;2.70;;;1.60;;
72379;SDS011;60354;47.798;12.472;2022-08-02T04:12:20;3.33;;;1.67;;
72379;SDS011;60354;47.798;12.472;2022-08-02T04:14:46;2.78;;;1.77;;
72379;SDS011;60354;47.798;12.472;2022-08-02T04:17:11;3.38;;;1.70;;
72379;SDS011;60354;47.798;12.472;2022-08-02T04:22:44;2.20;;;1.58;;
72379;SDS011;60354;47.798;12.472;2022-08-02T04:25:30;2.92;;;1.70;;
72379;SDS011;60354;47.798;12.472;2022-08-02T04:27:58;2.25;;;1.67;;
72379;SDS011;60354;47.798;12.472;2022-08-02T04:30:25;2.60;;;1.55;;
72379;SDS011;60354;47.798;12.472;2022-08-02T04:32:51;3.28;;;1.92;;
72379;SDS011;60354;47.798;12.472;2022-08-02T04:35:16;2.40;;;1.60;;
72379;SDS011;60354;47.798;12.472;2022-08-02T04:37:42;1.95;;;1.50;;
72379;SDS011;60354;47.798;12.472;2022-08-02T04:40:09;3.05;;;1.50;;
72379;SDS011;60354;47.798;12.472;2022-08-02T04:42:36;3.53;;;1.58;;
72379;SDS011;60354;47.798;12.472;2022-08-02T04:45:02;2.20;;;1.65;;
72379;SDS011;60354;47.798;12.472;2022-08-02T04:47:28;2.88;;;1.70;;
72379;SDS011;60354;47.798;12.472;2022-08-02T04:49:54;1.95;;;1.40;;
72379;SDS011;60354;47.798;12.472;2022-08-02T04:52:19;2.47;;;1.60;;
72379;SDS011;60354;47.798;12.472;2022-08-02T04:54:45;2.58;;;1.60;;
72379;SDS011;60354;47.798;12.472;2022-08-02T04:57:10;2.85;;;1.70;;
72379;SDS011;60354;47.798;12.472;2022-08-02T05:00:14;1.77;;;1.63;;
72379;SDS011;60354;47.798;12.472;2022-08-02T05:02:40;3.78;;;1.58;;
72379;SDS011;60354;47.798;12.472;2022-08-02T05:05:05;3.80;;;1.50;;
72379;SDS011;60354;47.798;12.472;2022-08-02T05:07:31;2.60;;;1.50;;
72379;SDS011;60354;47.798;12.472;2022-08-02T05:09:57;2.10;;;1.40;;
72379;SDS011;60354;47.798;12.472;2022-08-02T05:12:22;5.65;;;2.05;;
72379;SDS011;60354;47.798;12.472;2022-08-02T05:14:50;1.58;;;1.38;;
72379;SDS011;60354;47.798;12.472;2022-08-02T05:17:15;3.42;;;1.80;;
72379;SDS011;60354;47.798;12.472;2022-08-02T05:19:41;3.47;;;1.60;;
72379;SDS011;60354;47.798;12.472;2022-08-02T05:22:06;1.73;;;1.33;;
72379;SDS011;60354;47.798;12.472;2022-08-02T05:24:32;2.88;;;1.40;;
72379;SDS011;60354;47.798;12.472;2022-08-02T05:26:57;2.65;;;1.50;;
72379;SDS011;60354;47.798;12.472;2022-08-02T05:29:23;2.08;;;1.50;;
72379;SDS011;60354;47.798;12.472;2022-08-02T05:31:49;4.20;;;1.40;;
72379;SDS011;60354;47.798;12.472;2022-08-02T05:34:14;1.80;;;1.38;;
72379;SDS011;60354;47.798;12.472;2022-08-02T05:36:40;1.75;;;1.30;;
72379;SDS011;60354;47.798;12.472;2022-08-02T05:39:06;2.53;;;1.45;;
72379;SDS011;60354;47.798;12.472;2022-08-02T05:41:31;4.70;;;1.40;;
72379;SDS011;60354;47.798;12.472;2022-08-02T05:43:57;3.17;;;1.45;;
72379;SDS011;60354;47.798;12.472;2022-08-02T05:46:22;2.67;;;1.30;;
72379;SDS011;60354;47.798;12.472;2022-08-02T05:48:48;1.17;;;1.08;;
72379;SDS011;60354;47.798;12.472;2022-08-02T05:51:28;2.03;;;1.30;;
72379;SDS011;60354;47.798;12.472;2022-08-02T05:54:02;2.95;;;1.38;;
72379;SDS011;60354;47.798;12.472;2022-08-02T05:56:37;1.92;;;1.30;;
72379;SDS011;60354;47.798;12.472;2022-08-02T05:59:11;2.83;;;1.20;;
72379;SDS011;60354;47.798;12.472;2022-08-02T06:01:55;1.95;;;1.30;;
72379;SDS011;60354;47.798;12.472;2022-08-02T06:04:26;2.78;;;1.20;;
72379;SDS011;60354;47.798;12.472;2022-08-02T06:06:59;1.52;;;1.30;;
72379;SDS011;60354;47.798;12.472;2022-08-02T06:09:27;2.85;;;1.20;;
72379;SDS011;60354;47.798;12.472;2022-08-02T06:11:53;4.32;;;1.40;;
72379;SDS011;60354;47.798;12.472;2022-08-02T06:14:23;5.22;;;1.30;;
72379;SDS011;60354;47.798;12.472;2022-08-02T06:16:49;1.90;;;1.20;;
72379;SDS011;60354;47.798;12.472;2022-08-02T06:19:17;2.35;;;1.20;;
72379;SDS011;60354;47.798;12.472;2022-08-02T06:21:43;3.40;;;1.10;;
72379;SDS011;60354;47.798;12.472;2022-08-02T06:24:09;2.40;;;1.20;;
72379;SDS011;60354;47.798;12.472;2022-08-02T06:26:37;1.50;;;1.10;;
72379;SDS011;60354;47.798;12.472;2022-08-02T06:29:03;1.90;;;1.30;;
72379;SDS011;60354;47.798;12.472;2022-08-02T06:31:29;2.38;;;1.27;;
72379;SDS011;60354;47.798;12.472;2022-08-02T06:33:55;1.90;;;1.27;;
72379;SDS011;60354;47.798;12.472;2022-08-02T06:39:01;2.47;;;1.10;;
72379;SDS011;60354;47.798;12.472;2022-08-02T06:41:37;1.80;;;1.20;;
72379;SDS011;60354;47.798;12.472;2022-08-02T06:44:14;3.95;;;1.20;;
72379;SDS011;60354;47.798;12.472;2022-08-02T06:46:39;1.55;;;1.10;;
72379;SDS011;60354;47.798;12.472;2022-08-02T06:49:06;1.80;;;1.00;;
72379;SDS011;60354;47.798;12.472;2022-08-02T06:51:32;2.65;;;1.50;;
72379;SDS011;60354;47.798;12.472;2022-08-02T06:53:58;2.53;;;1.40;;
72379;SDS011;60354;47.798;12.472;2022-08-02T06:56:23;2.53;;;1.20;;
72379;SDS011;60354;47.798;12.472;2022-08-02T06:58:49;1.20;;;1.00;;
72379;SDS011;60354;47.798;12.472;2022-08-02T07:01:14;4.75;;;1.20;;
72379;SDS011;60354;47.798;12.472;2022-08-02T07:03:44;2.88;;;1.00;;
72379;SDS011;60354;47.798;12.472;2022-08-02T07:06:10;4.13;;;1.33;;
72379;SDS011;60354;47.798;12.472;2022-08-02T07:08:39;2.35;;;1.20;;
72379;SDS011;60354;47.798;12.472;2022-08-02T07:11:05;1.02;;;0.85;;
72379;SDS011;60354;47.798;12.472;2022-08-02T07:13:31;3.25;;;1.10;;
72379;SDS011;60354;47.798;12.472;2022-08-02T07:15:56;2.70;;;1.00;;
72379;SDS011;60354;47.798;12.472;2022-08-02T07:18:22;2.45;;;1.00;;
72379;SDS011;60354;47.798;12.472;2022-08-02T07:20:48;2.45;;;1.00;;
72379;SDS011;60354;47.798;12.472;2022-08-02T07:23:14;1.90;;;1.13;;
72379;SDS011;60354;47.798;12.472;2022-08-02T07:25:40;1.45;;;0.90;;
72379;SDS011;60354;47.798;12.472;2022-08-02T07:28:08;0.80;;;0.80;;
72379;SDS011;60354;47.798;12.472;2022-08-02T07:30:34;1.95;;;0.95;;
72379;SDS011;60354;47.798;12.472;2022-08-02T07:33:00;1.13;;;0.90;;
72379;SDS011;60354;47.798;12.472;2022-08-02T07:35:25;2.70;;;0.88;;
72379;SDS011;60354;47.798;12.472;2022-08-02T07:37:51;1.13;;;0.80;;
72379;SDS011;60354;47.798;12.472;2022-08-02T07:40:18;2.05;;;0.75;;
72379;SDS011;60354;47.798;12.472;2022-08-02T07:42:44;1.33;;;0.77;;
72379;SDS011;60354;47.798;12.472;2022-08-02T07:45:10;1.67;;;0.80;;
72379;SDS011;60354;47.798;12.472;2022-08-02T07:47:37;3.42;;;0.70;;
72379;SDS011;60354;47.798;12.472;2022-08-02T07:50:04;1.27;;;0.90;;
72379;SDS011;60354;47.798;12.472;2022-08-02T07:52:31;0.85;;;0.85;;
72379;SDS011;60354;47.798;12.472;2022-08-02T07:54:57;1.63;;;0.77;;
72379;SDS011;60354;47.798;12.472;2022-08-02T07:57:22;1.27;;;0.90;;
72379;SDS011;60354;47.798;12.472;2022-08-02T07:59:49;1.00;;;0.90;;
72379;SDS011;60354;47.798;12.472;2022-08-02T08:02:15;1.15;;;0.88;;
72379;SDS011;60354;47.798;12.472;2022-08-02T08:04:41;1.10;;;0.70;;
72379;SDS011;60354;47.798;12.472;2022-08-02T08:07:06;0.73;;;0.70;;
72379;SDS011;60354;47.798;12.472;2022-08-02T08:09:34;1.05;;;0.70;;
72379;SDS011;60354;47.798;12.472;2022-08-02T08:12:06;0.60;;;0.60;;
72379;SDS011;60354;47.798;12.472;2022-08-02T08:14:32;1.02;;;0.70;;
72379;SDS011;60354;47.798;12.472;2022-08-02T08:16:58;1.00;;;0.80;;
72379;SDS011;60354;47.798;12.472;2022-08-02T08:19:24;0.80;;;0.70;;
72379;SDS011;60354;47.798;12.472;2022-08-02T08:21:49;1.42;;;0.80;;
72379;SDS011;60354;47.798;12.472;2022-08-02T08:24:15;1.02;;;0.70;;
72379;SDS011;60354;47.798;12.472;2022-08-02T08:26:40;1.33;;;0.73;;
72379;SDS011;60354;47.798;12.472;2022-08-02T08:29:06;1.08;;;0.85;;
72379;SDS011;60354;47.798;12.472;2022-08-02T08:31:34;1.95;;;0.90;;
72379;SDS011;60354;47.798;12.472;2022-08-02T08:34:00;1.65;;;1.00;;
72379;SDS011;60354;47.798;12.472;2022-08-02T08:36:26;2.15;;;0.80;;
72379;SDS011;60354;47.798;12.472;2022-08-02T08:38:52;1.13;;;1.00;;
72379;SDS011;60354;47.798;12.472;2022-08-02T08:41:18;1.05;;;0.90;;
72379;SDS011;60354;47.798;12.472;2022-08-02T08:43:44;1.83;;;0.95;;
72379;SDS011;60354;47.798;12.472;2022-08-02T08:46:12;2.00;;;1.08;;
72379;SDS011;60354;47.798;12.472;2022-08-02T08:48:50;1.00;;;0.90;;
72379;SDS011;60354;47.798;12.472;2022-08-02T08:51:20;1.27;;;1.00;;
72379;SDS011;60354;47.798;12.472;2022-08-02T08:53:47;1.65;;;1.00;;
72379;SDS011;60354;47.798;12.472;2022-08-02T08:56:14;1.10;;;1.00;;
72379;SDS011;60354;47.798;12.472;2022-08-02T08:58:40;1.92;;;1.00;;
72379;SDS011;60354;47.798;12.472;2022-08-02T09:01:07;1.83;;;1.00;;
72379;SDS011;60354;47.798;12.472;2022-08-02T09:03:33;1.60;;;1.10;;
72379;SDS011;60354;47.798;12.472;2022-08-02T09:05:59;1.40;;;0.82;;
72379;SDS011;60354;47.798;12.472;2022-08-02T09:08:25;0.85;;;0.80;;
72379;SDS011;60354;47.798;12.472;2022-08-02T09:10:50;0.80;;;0.80;;
72379;SDS011;60354;47.798;12.472;2022-08-02T09:15:53;1.27;;;0.73;;
72379;SDS011;60354;47.798;12.472;2022-08-02T09:18:20;1.42;;;1.00;;
72379;SDS011;60354;47.798;12.472;2022-08-02T09:20:54;1.38;;;0.98;;
72379;SDS011;60354;47.798;12.472;2022-08-02T09:23:22;1.63;;;0.90;;
72379;SDS011;60354;47.798;12.472;2022-08-02T09:25:56;1.27;;;1.00;;
72379;SDS011;60354;47.798;12.472;2022-08-02T09:28:26;1.33;;;0.80;;
72379;SDS011;60354;47.798;12.472;2022-08-02T09:30:55;1.70;;;0.90;;
72379;SDS011;60354;47.798;12.472;2022-08-02T09:33:25;1.88;;;1.10;;
72379;SDS011;60354;47.798;12.472;2022-08-02T09:35:58;1.15;;;1.02;;
72379;SDS011;60354;47.798;12.472;2022-08-02T09:38:27;1.27;;;1.00;;
72379;SDS011;60354;47.798;12.472;2022-08-02T09:40:52;3.97;;;1.10;;
72379;SDS011;60354;47.798;12.472;2022-08-02T09:43:18;3.85;;;1.02;;
72379;SDS011;60354;47.798;12.472;2022-08-02T09:45:44;1.27;;;1.00;;
72379;SDS011;60354;47.798;12.472;2022-08-02T09:48:11;1.00;;;0.90;;
72379;SDS011;60354;47.798;12.472;2022-08-02T09:50:38;1.85;;;1.13;;
72379;SDS011;60354;47.798;12.472;2022-08-02T09:53:05;1.38;;;0.90;;
72379;SDS011;60354;47.798;12.472;2022-08-02T09:55:37;3.20;;;0.95;;
72379;SDS011;60354;47.798;12.472;2022-08-02T09:58:15;2.58;;;1.00;;
72379;SDS011;60354;47.798;12.472;2022-08-02T10:00:55;2.08;;;1.10;;
72379;SDS011;60354;47.798;12.472;2022-08-02T10:03:23;0.80;;;0.80;;
72379;SDS011;60354;47.798;12.472;2022-08-02T10:05:52;1.35;;;0.90;;
72379;SDS011;60354;47.798;12.472;2022-08-02T10:08:19;0.85;;;0.80;;
72379;SDS011;60354;47.798;12.472;2022-08-02T10:10:46;1.20;;;0.90;;
72379;SDS011;60354;47.798;12.472;2022-08-02T10:13:12;1.17;;;1.00;;
72379;SDS011;60354;47.798;12.472;2022-08-02T10:15:38;3.50;;;0.93;;
72379;SDS011;60354;47.798;12.472;2022-08-02T10:18:04;1.25;;;0.90;;
72379;SDS011;60354;47.798;12.472;2022-08-02T10:20:32;1.15;;;0.90;;
72379;SDS011;60354;47.798;12.472;2022-08-02T10:23:04;1.67;;;0.98;;
72379;SDS011;60354;47.798;12.472;2022-08-02T10:25:32;1.38;;;0.93;;
72379;SDS011;60354;47.798;12.472;2022-08-02T10:28:01;0.90;;;0.85;;
72379;SDS011;60354;47.798;12.472;2022-08-02T10:30:27;1.67;;;0.80;;
72379;SDS011;60354;47.798;12.472;2022-08-02T10:32:54;2.75;;;1.10;;
72379;SDS011;60354;47.798;12.472;2022-08-02T10:35:22;2.25;;;0.90;;
72379;SDS011;60354;47.798;12.472;2022-08-02T10:37:51;3.53;;;1.00;;
72379;SDS011;60354;47.798;12.472;2022-08-02T10:40:19;1.55;;;1.00;;
72379;SDS011;60354;47.798;12.472;2022-08-02T10:42:48;2.80;;;1.10;;
72379;SDS011;60354;47.798;12.472;2022-08-02T10:45:16;2.65;;;1.00;;
72379;SDS011;60354;47.798;12.472;2022-08-02T10:53:21;1.42;;;1.00;;
72379;SDS011;60354;47.798;12.472;2022-08-02T10:55:49;2.28;;;1.10;;
72379;SDS011;60354;47.798;12.472;2022-08-02T10:58:15;1.73;;;1.10;;
72379;SDS011;60354;47.798;12.472;2022-08-02T11:00:46;1.35;;;0.93;;
72379;SDS011;60354;47.798;12.472;2022-08-02T11:03:32;3.13;;;0.93;;
72379;SDS011;60354;47.798;12.472;2022-08-02T11:06:09;1.13;;;0.90;;
72379;SDS011;60354;47.798;12.472;2022-08-02T11:08:36;1.98;;;0.90;;
72379;SDS011;60354;47.798;12.472;2022-08-02T11:17:03;1.10;;;0.90;;
72379;SDS011;60354;47.798;12.472;2022-08-02T11:19:19;1.67;;;0.90;;
72379;SDS011;60354;47.798;12.472;2022-08-02T11:21:59;1.30;;;0.90;;
72379;SDS011;60354;47.798;12.472;2022-08-02T11:24:42;1.88;;;0.93;;
72379;SDS011;60354;47.798;12.472;2022-08-02T11:27:08;1.13;;;0.90;;
72379;SDS011;60354;47.798;12.472;2022-08-02T11:29:42;1.45;;;1.15;;
72379;SDS011;60354;47.798;12.472;2022-08-02T11:34:45;0.98;;;0.82;;
72379;SDS011;60354;47.798;12.472;2022-08-02T11:37:26;2.33;;;0.88;;
72379;SDS011;60354;47.798;12.472;2022-08-02T11:39:52;1.73;;;0.75;;
72379;SDS011;60354;47.798;12.472;2022-08-02T11:42:18;1.20;;;0.85;;
72379;SDS011;60354;47.798;12.472;2022-08-02T11:44:43;2.53;;;1.00;;
72379;SDS011;60354;47.798;12.472;2022-08-02T11:47:10;1.65;;;0.85;;
72379;SDS011;60354;47.798;12.472;2022-08-02T11:49:36;1.42;;;0.90;;
72379;SDS011;60354;47.798;12.472;2022-08-02T11:52:06;1.58;;;0.98;;
72379;SDS011;60354;47.798;12.472;2022-08-02T11:54:35;1.40;;;1.00;;
72379;SDS011;60354;47.798;12.472;2022-08-02T11:57:11;1.00;;;0.82;;
72379;SDS011;60354;47.798;12.472;2022-08-02T11:59:45;0.88;;;0.82;;
72379;SDS011;60354;47.798;12.472;2022-08-02T12:02:17;2.80;;;0.90;;
72379;SDS011;60354;47.798;12.472;2022-08-02T12:04:50;1.40;;;0.75;;
72379;SDS011;60354;47.798;12.472;2022-08-02T12:07:16;2.07;;;0.90;;
72379;SDS011;60354;47.798;12.472;2022-08-02T12:09:42;1.23;;;0.90;;
72379;SDS011;60354;47.798;12.472;2022-08-02T12:12:08;1.90;;;0.80;;
72379;SDS011;60354;47.798;12.472;2022-08-02T12:14:33;1.25;;;0.80;;
72379;SDS011;60354;47.798;12.472;2022-08-02T12:17:07;0.90;;;0.70;;
72379;SDS011;60354;47.798;12.472;2022-08-02T12:19:51;1.02;;;0.80;;
72379;SDS011;60354;47.798;12.472;2022-08-02T12:22:17;1.67;;;0.80;;
72379;SDS011;60354;47.798;12.472;2022-08-02T12:24:51;1.35;;;0.77;;
72379;SDS011;60354;47.798;12.472;2022-08-02T12:30:07;1.08;;;0.77;;
72379;SDS011;60354;47.798;12.472;2022-08-02T12:32:37;3.05;;;0.77;;
72379;SDS011;60354;47.798;12.472;2022-08-02T12:35:05;0.70;;;0.70;;
72379;SDS011;60354;47.798;12.472;2022-08-02T12:37:42;0.82;;;0.77;;
72379;SDS011;60354;47.798;12.472;2022-08-02T12:40:19;1.33;;;0.90;;
72379;SDS011;60354;47.798;12.472;2022-08-02T12:43:05;1.10;;;0.80;;
72379;SDS011;60354;47.798;12.472;2022-08-02T12:48:39;1.40;;;0.80;;
72379;SDS011;60354;47.798;12.472;2022-08-02T12:53:49;1.88;;;0.80;;
72379;SDS011;60354;47.798;12.472;2022-08-02T12:56:25;0.68;;;0.68;;
72379;SDS011;60354;47.798;12.472;2022-08-02T12:58:55;0.73;;;0.73;;
72379;SDS011;60354;47.798;12.472;2022-08-02T13:01:22;1.13;;;0.85;;
72379;SDS011;60354;47.798;12.472;2022-08-02T13:03:49;2.03;;;0.77;;
72379;SDS011;60354;47.798;12.472;2022-08-02T13:06:16;0.85;;;0.80;;
72379;SDS011;60354;47.798;12.472;2022-08-02T13:08:46;1.85;;;0.80;;
72379;SDS011;60354;47.798;12.472;2022-08-02T13:11:15;1.80;;;0.98;;
72379;SDS011;60354;47.798;12.472;2022-08-02T13:13:41;1.73;;;0.90;;
72379;SDS011;60354;47.798;12.472;2022-08-02T13:16:08;1.85;;;0.70;;
72379;SDS011;60354;47.798;12.472;2022-08-02T13:18:34;2.38;;;0.77;;
72379;SDS011;60354;47.798;12.472;2022-08-02T13:21:00;2.13;;;0.80;;
72379;SDS011;60354;47.798;12.472;2022-08-02T13:23:25;2.00;;;0.80;;
72379;SDS011;60354;47.798;12.472;2022-08-02T13:25:51;1.13;;;0.80;;
72379;SDS011;60354;47.798;12.472;2022-08-02T13:28:19;0.77;;;0.70;;
72379;SDS011;60354;47.798;12.472;2022-08-02T13:30:45;2.22;;;0.90;;
72379;SDS011;60354;47.798;12.472;2022-08-02T13:33:11;2.58;;;0.90;;
72379;SDS011;60354;47.798;12.472;2022-08-02T13:35:38;3.40;;;0.80;;
72379;SDS011;60354;47.798;12.472;2022-08-02T13:38:03;2.83;;;0.82;;
72379;SDS011;60354;47.798;12.472;2022-08-02T13:40:31;0.80;;;0.80;;
72379;SDS011;60354;47.798;12.472;2022-08-02T13:42:57;1.10;;;0.90;;
72379;SDS011;60354;47.798;12.472;2022-08-02T13:45:22;1.63;;;0.70;;
72379;SDS011;60354;47.798;12.472;2022-08-02T13:47:48;1.65;;;0.80;;
72379;SDS011;60354;47.798;12.472;2022-08-02T13:50:13;0.98;;;0.88;;
72379;SDS011;60354;47.798;12.472;2022-08-02T13:52:40;1.52;;;0.90;;
72379;SDS011;60354;47.798;12.472;2022-08-02T13:55:05;1.05;;;0.90;;
72379;SDS011;60354;47.798;12.472;2022-08-02T13:57:31;1.17;;;0.73;;
72379;SDS011;60354;47.798;12.472;2022-08-02T13:59:57;1.52;;;0.80;;
72379;SDS011;60354;47.798;12.472;2022-08-02T14:02:22;1.60;;;0.73;;
72379;SDS011;60354;47.798;12.472;2022-08-02T14:04:48;2.08;;;0.82;;
72379;SDS011;60354;47.798;12.472;2022-08-02T14:07:13;1.38;;;0.80;;
72379;SDS011;60354;47.798;12.472;2022-08-02T14:09:40;2.65;;;0.80;;
72379;SDS011;60354;47.798;12.472;2022-08-02T14:12:05;0.93;;;0.82;;
72379;SDS011;60354;47.798;12.472;2022-08-02T14:14:33;1.58;;;0.90;;
72379;SDS011;60354;47.798;12.472;2022-08-02T14:16:58;1.13;;;0.75;;
72379;SDS011;60354;47.798;12.472;2022-08-02T14:19:24;2.28;;;0.75;;
72379;SDS011;60354;47.798;12.472;2022-08-02T14:21:50;0.70;;;0.70;;
72379;SDS011;60354;47.798;12.472;2022-08-02T14:24:16;2.70;;;0.88;;
72379;SDS011;60354;47.798;12.472;2022-08-02T14:26:43;1.20;;;0.77;;
72379;SDS011;60354;47.798;12.472;2022-08-02T14:29:10;2.47;;;0.90;;
72379;SDS011;60354;47.798;12.472;2022-08-02T14:31:35;0.90;;;0.70;;
72379;SDS011;60354;47.798;12.472;2022-08-02T14:34:01;1.35;;;0.82;;
72379;SDS011;60354;47.798;12.472;2022-08-02T14:36:27;2.28;;;0.80;;
72379;SDS011;60354;47.798;12.472;2022-08-02T14:38:53;2.47;;;0.70;;
72379;SDS011;60354;47.798;12.472;2022-08-02T14:41:19;3.13;;;0.80;;
72379;SDS011;60354;47.798;12.472;2022-08-02T14:43:45;1.05;;;0.70;;
72379;SDS011;60354;47.798;12.472;2022-08-02T14:46:28;1.08;;;0.68;;
72379;SDS011;60354;47.798;12.472;2022-08-02T14:48:58;0.93;;;0.70;;
72379;SDS011;60354;47.798;12.472;2022-08-02T14:51:30;1.13;;;0.80;;
72379;SDS011;60354;47.798;12.472;2022-08-02T14:53:56;2.55;;;0.80;;
72379;SDS011;60354;47.798;12.472;2022-08-02T14:56:23;0.70;;;0.70;;
72379;SDS011;60354;47.798;12.472;2022-08-02T14:58:48;1.02;;;0.75;;
72379;SDS011;60354;47.798;12.472;2022-08-02T15:01:14;1.25;;;0.93;;
72379;SDS011;60354;47.798;12.472;2022-08-02T15:03:39;1.02;;;0.70;;
72379;SDS011;60354;47.798;12.472;2022-08-02T15:06:05;1.30;;;0.95;;
72379;SDS011;60354;47.798;12.472;2022-08-02T15:08:30;1.13;;;0.70;;
72379;SDS011;60354;47.798;12.472;2022-08-02T15:10:56;1.05;;;0.82;;
72379;SDS011;60354;47.798;12.472;2022-08-02T15:13:22;1.05;;;0.73;;
72379;SDS011;60354;47.798;12.472;2022-08-02T15:15:47;1.20;;;0.73;;
72379;SDS011;60354;47.798;12.472;2022-08-02T15:18:12;1.02;;;0.73;;
72379;SDS011;60354;47.798;12.472;2022-08-02T15:20:38;0.73;;;0.70;;